Terminal Aerodrome Forecast
Issued by NWS

Home | Current Version | Previous Version | Graphics & Text | Print | Product List | Glossary On
Versions: 1 2 3 4 5 6 7 8 9 10 11 12 13 14 15 16
000
FTUS41 KCLE 180500
TAFFDY
TAF
KFDY 180525Z 1806/1906 28014G22KT P6SM OVC020
     FM181400 32014G22KT P6SM OVC025
     FM182200 32012G20KT P6SM SCT025 OVC050
      TEMPO 1822/1902 BKN025
     FM190200 32006KT P6SM SCT050 BKN100=

USA.gov is the U.S. government's official web portal to all federal, state and local government web resources and services.